sensor_id;sensor_type;location;lat;lon;timestamp;P1;durP1;ratioP1;P2;durP2;ratioP2
77055;SDS011;67471;44.918;8.614;2024-02-28T00:00:22;15.10;;;10.10;;
77055;SDS011;67471;44.918;8.614;2024-02-28T00:03:26;12.52;;;9.82;;
77055;SDS011;67471;44.918;8.614;2024-02-28T00:06:30;13.32;;;8.63;;
77055;SDS011;67471;44.918;8.614;2024-02-28T00:09:34;12.48;;;8.65;;
77055;SDS011;67471;44.918;8.614;2024-02-28T00:12:38;11.43;;;7.95;;
77055;SDS011;67471;44.918;8.614;2024-02-28T00:15:42;11.05;;;8.02;;
77055;SDS011;67471;44.918;8.614;2024-02-28T00:18:45;8.73;;;6.88;;
77055;SDS011;67471;44.918;8.614;2024-02-28T00:21:49;8.93;;;7.20;;
77055;SDS011;67471;44.918;8.614;2024-02-28T00:24:53;11.23;;;7.57;;
77055;SDS011;67471;44.918;8.614;2024-02-28T00:27:57;10.10;;;6.78;;
77055;SDS011;67471;44.918;8.614;2024-02-28T00:31:00;8.73;;;6.55;;
77055;SDS011;67471;44.918;8.614;2024-02-28T00:34:04;8.82;;;6.47;;
77055;SDS011;67471;44.918;8.614;2024-02-28T00:37:10;9.90;;;6.93;;
77055;SDS011;67471;44.918;8.614;2024-02-28T00:40:13;10.73;;;6.63;;
77055;SDS011;67471;44.918;8.614;2024-02-28T00:43:17;9.07;;;6.65;;
77055;SDS011;67471;44.918;8.614;2024-02-28T00:46:21;7.88;;;6.10;;
77055;SDS011;67471;44.918;8.614;2024-02-28T00:49:25;8.52;;;6.20;;
77055;SDS011;67471;44.918;8.614;2024-02-28T00:52:29;9.43;;;6.38;;
77055;SDS011;67471;44.918;8.614;2024-02-28T00:55:33;7.85;;;6.05;;
77055;SDS011;67471;44.918;8.614;2024-02-28T00:58:37;8.93;;;5.97;;
77055;SDS011;67471;44.918;8.614;2024-02-28T01:01:41;10.85;;;7.35;;
77055;SDS011;67471;44.918;8.614;2024-02-28T01:04:45;10.55;;;6.97;;
77055;SDS011;67471;44.918;8.614;2024-02-28T01:07:49;9.00;;;6.68;;
77055;SDS011;67471;44.918;8.614;2024-02-28T01:10:53;8.27;;;6.07;;
77055;SDS011;67471;44.918;8.614;2024-02-28T01:13:57;8.32;;;6.18;;
77055;SDS011;67471;44.918;8.614;2024-02-28T01:17:01;7.95;;;6.15;;
77055;SDS011;67471;44.918;8.614;2024-02-28T01:20:05;9.18;;;6.82;;
77055;SDS011;67471;44.918;8.614;2024-02-28T01:23:10;10.38;;;7.40;;
77055;SDS011;67471;44.918;8.614;2024-02-28T01:26:14;12.88;;;7.75;;
77055;SDS011;67471;44.918;8.614;2024-02-28T01:29:18;12.00;;;7.57;;
77055;SDS011;67471;44.918;8.614;2024-02-28T01:32:22;10.82;;;7.57;;
77055;SDS011;67471;44.918;8.614;2024-02-28T01:35:25;10.15;;;7.68;;
77055;SDS011;67471;44.918;8.614;2024-02-28T01:38:29;9.60;;;7.30;;
77055;SDS011;67471;44.918;8.614;2024-02-28T01:41:33;12.63;;;7.65;;
77055;SDS011;67471;44.918;8.614;2024-02-28T01:44:40;10.57;;;7.90;;
77055;SDS011;67471;44.918;8.614;2024-02-28T01:47:48;9.65;;;7.00;;
77055;SDS011;67471;44.918;8.614;2024-02-28T01:50:52;10.45;;;7.68;;
77055;SDS011;67471;44.918;8.614;2024-02-28T01:53:56;12.20;;;8.88;;
77055;SDS011;67471;44.918;8.614;2024-02-28T01:57:01;14.85;;;9.02;;
77055;SDS011;67471;44.918;8.614;2024-02-28T02:00:06;10.18;;;7.80;;
77055;SDS011;67471;44.918;8.614;2024-02-28T02:03:11;10.57;;;7.97;;
77055;SDS011;67471;44.918;8.614;2024-02-28T02:06:15;10.30;;;7.60;;
77055;SDS011;67471;44.918;8.614;2024-02-28T02:09:19;11.32;;;8.38;;
77055;SDS011;67471;44.918;8.614;2024-02-28T02:12:23;11.70;;;8.63;;
77055;SDS011;67471;44.918;8.614;2024-02-28T02:15:27;12.70;;;9.38;;
77055;SDS011;67471;44.918;8.614;2024-02-28T02:18:32;14.23;;;10.55;;
77055;SDS011;67471;44.918;8.614;2024-02-28T02:21:48;13.38;;;9.68;;
77055;SDS011;67471;44.918;8.614;2024-02-28T02:24:54;14.80;;;9.85;;
77055;SDS011;67471;44.918;8.614;2024-02-28T02:27:58;13.02;;;9.15;;
77055;SDS011;67471;44.918;8.614;2024-02-28T02:31:02;11.55;;;8.45;;
77055;SDS011;67471;44.918;8.614;2024-02-28T02:34:06;16.23;;;9.93;;
77055;SDS011;67471;44.918;8.614;2024-02-28T02:37:10;12.35;;;8.70;;
77055;SDS011;67471;44.918;8.614;2024-02-28T02:40:14;13.90;;;9.02;;
77055;SDS011;67471;44.918;8.614;2024-02-28T02:43:18;12.63;;;9.02;;
77055;SDS011;67471;44.918;8.614;2024-02-28T02:46:22;12.15;;;8.80;;
77055;SDS011;67471;44.918;8.614;2024-02-28T02:49:26;13.35;;;9.05;;
77055;SDS011;67471;44.918;8.614;2024-02-28T02:52:30;12.88;;;8.60;;
77055;SDS011;67471;44.918;8.614;2024-02-28T02:55:33;16.48;;;10.98;;
77055;SDS011;67471;44.918;8.614;2024-02-28T02:58:37;14.00;;;9.10;;
77055;SDS011;67471;44.918;8.614;2024-02-28T03:01:41;12.90;;;8.55;;
77055;SDS011;67471;44.918;8.614;2024-02-28T03:04:45;13.75;;;8.38;;
77055;SDS011;67471;44.918;8.614;2024-02-28T03:07:49;13.95;;;8.45;;
77055;SDS011;67471;44.918;8.614;2024-02-28T03:10:52;11.45;;;7.80;;
77055;SDS011;67471;44.918;8.614;2024-02-28T03:13:57;11.90;;;7.22;;
77055;SDS011;67471;44.918;8.614;2024-02-28T03:17:01;12.43;;;7.68;;
77055;SDS011;67471;44.918;8.614;2024-02-28T03:20:05;13.18;;;7.38;;
77055;SDS011;67471;44.918;8.614;2024-02-28T03:23:10;11.52;;;7.18;;
77055;SDS011;67471;44.918;8.614;2024-02-28T03:26:14;10.35;;;6.95;;
77055;SDS011;67471;44.918;8.614;2024-02-28T03:29:18;9.70;;;6.57;;
77055;SDS011;67471;44.918;8.614;2024-02-28T03:32:22;10.73;;;6.93;;
77055;SDS011;67471;44.918;8.614;2024-02-28T03:35:26;9.68;;;6.60;;
77055;SDS011;67471;44.918;8.614;2024-02-28T03:38:29;10.02;;;6.85;;
77055;SDS011;67471;44.918;8.614;2024-02-28T03:41:34;10.32;;;6.78;;
77055;SDS011;67471;44.918;8.614;2024-02-28T03:44:37;9.18;;;6.57;;
77055;SDS011;67471;44.918;8.614;2024-02-28T03:47:41;9.88;;;6.53;;
77055;SDS011;67471;44.918;8.614;2024-02-28T03:50:45;11.57;;;7.25;;
77055;SDS011;67471;44.918;8.614;2024-02-28T03:53:49;8.52;;;6.07;;
77055;SDS011;67471;44.918;8.614;2024-02-28T03:56:53;11.93;;;7.00;;
77055;SDS011;67471;44.918;8.614;2024-02-28T03:59:57;8.88;;;6.15;;
77055;SDS011;67471;44.918;8.614;2024-02-28T04:03:00;11.25;;;7.20;;
77055;SDS011;67471;44.918;8.614;2024-02-28T04:06:04;10.02;;;7.00;;
77055;SDS011;67471;44.918;8.614;2024-02-28T04:09:08;11.88;;;7.35;;
77055;SDS011;67471;44.918;8.614;2024-02-28T04:12:12;13.05;;;8.20;;
77055;SDS011;67471;44.918;8.614;2024-02-28T04:15:16;12.55;;;7.32;;
77055;SDS011;67471;44.918;8.614;2024-02-28T04:18:20;14.20;;;7.85;;
77055;SDS011;67471;44.918;8.614;2024-02-28T04:21:23;14.50;;;7.50;;
77055;SDS011;67471;44.918;8.614;2024-02-28T04:24:27;14.15;;;8.52;;
77055;SDS011;67471;44.918;8.614;2024-02-28T04:27:31;12.85;;;8.25;;
77055;SDS011;67471;44.918;8.614;2024-02-28T04:30:34;17.55;;;9.32;;
77055;SDS011;67471;44.918;8.614;2024-02-28T04:33:39;15.38;;;8.20;;
77055;SDS011;67471;44.918;8.614;2024-02-28T04:36:43;14.15;;;8.40;;
77055;SDS011;67471;44.918;8.614;2024-02-28T04:39:46;16.63;;;8.93;;
77055;SDS011;67471;44.918;8.614;2024-02-28T04:42:50;13.88;;;8.30;;
77055;SDS011;67471;44.918;8.614;2024-02-28T04:45:54;16.55;;;9.63;;
77055;SDS011;67471;44.918;8.614;2024-02-28T04:48:58;16.67;;;9.68;;
77055;SDS011;67471;44.918;8.614;2024-02-28T04:52:01;19.05;;;10.57;;
77055;SDS011;67471;44.918;8.614;2024-02-28T04:55:05;20.35;;;9.90;;
77055;SDS011;67471;44.918;8.614;2024-02-28T04:58:09;20.63;;;11.05;;
77055;SDS011;67471;44.918;8.614;2024-02-28T05:01:13;23.42;;;10.90;;
77055;SDS011;67471;44.918;8.614;2024-02-28T05:04:17;22.17;;;10.57;;
77055;SDS011;67471;44.918;8.614;2024-02-28T05:07:20;24.25;;;11.52;;
77055;SDS011;67471;44.918;8.614;2024-02-28T05:10:24;25.40;;;11.77;;
77055;SDS011;67471;44.918;8.614;2024-02-28T05:13:28;19.33;;;10.63;;
77055;SDS011;67471;44.918;8.614;2024-02-28T05:16:32;19.42;;;10.82;;
77055;SDS011;67471;44.918;8.614;2024-02-28T05:19:35;22.58;;;12.18;;
77055;SDS011;67471;44.918;8.614;2024-02-28T05:22:40;22.58;;;11.52;;
77055;SDS011;67471;44.918;8.614;2024-02-28T05:25:46;21.10;;;11.82;;
77055;SDS011;67471;44.918;8.614;2024-02-28T05:28:50;27.60;;;12.35;;
77055;SDS011;67471;44.918;8.614;2024-02-28T05:31:54;25.55;;;15.02;;
77055;SDS011;67471;44.918;8.614;2024-02-28T05:34:57;23.30;;;13.10;;
77055;SDS011;67471;44.918;8.614;2024-02-28T05:38:01;25.50;;;14.23;;
77055;SDS011;67471;44.918;8.614;2024-02-28T05:41:06;24.77;;;11.70;;
77055;SDS011;67471;44.918;8.614;2024-02-28T05:44:10;26.55;;;13.30;;
77055;SDS011;67471;44.918;8.614;2024-02-28T05:47:13;26.60;;;11.70;;
77055;SDS011;67471;44.918;8.614;2024-02-28T05:50:18;26.50;;;12.82;;
77055;SDS011;67471;44.918;8.614;2024-02-28T05:53:22;27.65;;;11.95;;
77055;SDS011;67471;44.918;8.614;2024-02-28T05:56:30;24.33;;;12.27;;
77055;SDS011;67471;44.918;8.614;2024-02-28T05:59:33;27.60;;;14.13;;
77055;SDS011;67471;44.918;8.614;2024-02-28T06:02:37;23.75;;;12.57;;
77055;SDS011;67471;44.918;8.614;2024-02-28T06:05:41;27.85;;;13.32;;
77055;SDS011;67471;44.918;8.614;2024-02-28T06:08:45;33.33;;;12.90;;
77055;SDS011;67471;44.918;8.614;2024-02-28T06:11:49;26.58;;;13.57;;
77055;SDS011;67471;44.918;8.614;2024-02-28T06:14:53;26.55;;;13.00;;
77055;SDS011;67471;44.918;8.614;2024-02-28T06:17:57;33.60;;;16.38;;
77055;SDS011;67471;44.918;8.614;2024-02-28T06:21:03;28.52;;;13.75;;
77055;SDS011;67471;44.918;8.614;2024-02-28T06:24:06;29.33;;;13.77;;
77055;SDS011;67471;44.918;8.614;2024-02-28T06:27:10;31.45;;;12.93;;
77055;SDS011;67471;44.918;8.614;2024-02-28T06:30:17;28.00;;;13.30;;
77055;SDS011;67471;44.918;8.614;2024-02-28T06:33:20;28.85;;;13.90;;
77055;SDS011;67471;44.918;8.614;2024-02-28T06:36:24;28.17;;;13.48;;
77055;SDS011;67471;44.918;8.614;2024-02-28T06:39:28;26.20;;;13.82;;
77055;SDS011;67471;44.918;8.614;2024-02-28T06:42:32;28.63;;;13.10;;
77055;SDS011;67471;44.918;8.614;2024-02-28T06:45:36;23.98;;;13.55;;
77055;SDS011;67471;44.918;8.614;2024-02-28T06:48:40;24.08;;;12.95;;
77055;SDS011;67471;44.918;8.614;2024-02-28T06:51:44;23.65;;;12.75;;
77055;SDS011;67471;44.918;8.614;2024-02-28T06:54:48;23.63;;;12.65;;
77055;SDS011;67471;44.918;8.614;2024-02-28T06:57:52;26.38;;;13.93;;
77055;SDS011;67471;44.918;8.614;2024-02-28T07:00:56;27.30;;;13.18;;
77055;SDS011;67471;44.918;8.614;2024-02-28T07:03:59;28.85;;;13.50;;
77055;SDS011;67471;44.918;8.614;2024-02-28T07:07:03;30.35;;;14.07;;
77055;SDS011;67471;44.918;8.614;2024-02-28T07:10:08;26.13;;;13.82;;
77055;SDS011;67471;44.918;8.614;2024-02-28T07:13:12;29.27;;;14.13;;
77055;SDS011;67471;44.918;8.614;2024-02-28T07:16:16;28.25;;;14.43;;
77055;SDS011;67471;44.918;8.614;2024-02-28T07:19:20;25.38;;;14.70;;
77055;SDS011;67471;44.918;8.614;2024-02-28T07:22:24;25.58;;;14.15;;
77055;SDS011;67471;44.918;8.614;2024-02-28T07:25:28;33.58;;;16.30;;
77055;SDS011;67471;44.918;8.614;2024-02-28T07:28:32;24.85;;;14.48;;
77055;SDS011;67471;44.918;8.614;2024-02-28T07:31:36;22.52;;;12.80;;
77055;SDS011;67471;44.918;8.614;2024-02-28T07:34:40;21.33;;;13.20;;
77055;SDS011;67471;44.918;8.614;2024-02-28T07:37:44;29.38;;;14.15;;
77055;SDS011;67471;44.918;8.614;2024-02-28T07:40:47;26.17;;;14.02;;
77055;SDS011;67471;44.918;8.614;2024-02-28T07:43:52;25.88;;;14.00;;
77055;SDS011;67471;44.918;8.614;2024-02-28T07:46:57;24.40;;;13.82;;
77055;SDS011;67471;44.918;8.614;2024-02-28T07:50:03;25.88;;;14.23;;
77055;SDS011;67471;44.918;8.614;2024-02-28T07:53:08;26.23;;;14.15;;
77055;SDS011;67471;44.918;8.614;2024-02-28T07:56:16;28.42;;;15.65;;
77055;SDS011;67471;44.918;8.614;2024-02-28T07:59:21;24.95;;;14.85;;
77055;SDS011;67471;44.918;8.614;2024-02-28T08:02:24;27.25;;;16.25;;
77055;SDS011;67471;44.918;8.614;2024-02-28T08:05:28;26.30;;;14.70;;
77055;SDS011;67471;44.918;8.614;2024-02-28T08:08:32;23.00;;;13.65;;
77055;SDS011;67471;44.918;8.614;2024-02-28T08:11:37;23.50;;;13.50;;
77055;SDS011;67471;44.918;8.614;2024-02-28T08:14:41;25.45;;;13.13;;
77055;SDS011;67471;44.918;8.614;2024-02-28T08:17:44;26.13;;;14.32;;
77055;SDS011;67471;44.918;8.614;2024-02-28T08:20:48;28.23;;;14.43;;
77055;SDS011;67471;44.918;8.614;2024-02-28T08:23:53;31.58;;;15.10;;
77055;SDS011;67471;44.918;8.614;2024-02-28T08:26:57;31.67;;;15.70;;
77055;SDS011;67471;44.918;8.614;2024-02-28T08:30:00;26.38;;;14.90;;
77055;SDS011;67471;44.918;8.614;2024-02-28T08:33:05;26.80;;;12.70;;
77055;SDS011;67471;44.918;8.614;2024-02-28T08:36:10;26.42;;;14.02;;
77055;SDS011;67471;44.918;8.614;2024-02-28T08:39:14;24.63;;;12.73;;
77055;SDS011;67471;44.918;8.614;2024-02-28T08:42:18;27.40;;;13.98;;
77055;SDS011;67471;44.918;8.614;2024-02-28T08:45:22;24.50;;;13.32;;
77055;SDS011;67471;44.918;8.614;2024-02-28T08:48:26;25.83;;;13.23;;
77055;SDS011;67471;44.918;8.614;2024-02-28T08:51:30;30.92;;;17.42;;
77055;SDS011;67471;44.918;8.614;2024-02-28T08:54:33;43.90;;;25.25;;
77055;SDS011;67471;44.918;8.614;2024-02-28T08:57:37;41.95;;;22.17;;
77055;SDS011;67471;44.918;8.614;2024-02-28T09:00:41;26.27;;;15.82;;
77055;SDS011;67471;44.918;8.614;2024-02-28T09:03:45;26.85;;;12.77;;
77055;SDS011;67471;44.918;8.614;2024-02-28T09:06:48;19.83;;;12.48;;
77055;SDS011;67471;44.918;8.614;2024-02-28T09:09:52;18.42;;;11.60;;
77055;SDS011;67471;44.918;8.614;2024-02-28T09:12:56;18.67;;;11.90;;
77055;SDS011;67471;44.918;8.614;2024-02-28T09:16:00;16.15;;;11.02;;
77055;SDS011;67471;44.918;8.614;2024-02-28T09:19:04;17.23;;;12.30;;
77055;SDS011;67471;44.918;8.614;2024-02-28T09:22:08;17.50;;;11.30;;
77055;SDS011;67471;44.918;8.614;2024-02-28T09:25:12;19.73;;;12.13;;
77055;SDS011;67471;44.918;8.614;2024-02-28T09:28:15;18.52;;;10.95;;
77055;SDS011;67471;44.918;8.614;2024-02-28T09:31:19;13.50;;;9.35;;
77055;SDS011;67471;44.918;8.614;2024-02-28T09:34:23;14.00;;;10.10;;
77055;SDS011;67471;44.918;8.614;2024-02-28T09:37:27;14.43;;;9.73;;
77055;SDS011;67471;44.918;8.614;2024-02-28T09:40:31;11.48;;;7.60;;
77055;SDS011;67471;44.918;8.614;2024-02-28T09:43:38;13.98;;;6.93;;
77055;SDS011;67471;44.918;8.614;2024-02-28T09:46:44;10.40;;;6.90;;
77055;SDS011;67471;44.918;8.614;2024-02-28T09:49:49;8.45;;;6.25;;
77055;SDS011;67471;44.918;8.614;2024-02-28T09:52:55;11.15;;;8.18;;
77055;SDS011;67471;44.918;8.614;2024-02-28T09:55:59;11.85;;;7.78;;
77055;SDS011;67471;44.918;8.614;2024-02-28T09:59:04;9.40;;;6.75;;
77055;SDS011;67471;44.918;8.614;2024-02-28T10:02:09;8.63;;;5.97;;
77055;SDS011;67471;44.918;8.614;2024-02-28T10:05:14;7.93;;;6.00;;
77055;SDS011;67471;44.918;8.614;2024-02-28T10:08:19;7.13;;;5.53;;
77055;SDS011;67471;44.918;8.614;2024-02-28T10:11:23;14.30;;;7.70;;
77055;SDS011;67471;44.918;8.614;2024-02-28T10:14:27;13.88;;;9.82;;
77055;SDS011;67471;44.918;8.614;2024-02-28T10:17:31;8.23;;;5.43;;
77055;SDS011;67471;44.918;8.614;2024-02-28T10:20:35;8.27;;;4.43;;
77055;SDS011;67471;44.918;8.614;2024-02-28T10:23:39;6.97;;;5.07;;
77055;SDS011;67471;44.918;8.614;2024-02-28T10:26:44;7.47;;;4.50;;
77055;SDS011;67471;44.918;8.614;2024-02-28T10:29:48;8.27;;;4.43;;
77055;SDS011;67471;44.918;8.614;2024-02-28T10:32:51;5.63;;;4.05;;
77055;SDS011;67471;44.918;8.614;2024-02-28T10:35:55;7.38;;;4.25;;
77055;SDS011;67471;44.918;8.614;2024-02-28T10:39:00;6.20;;;4.40;;
77055;SDS011;67471;44.918;8.614;2024-02-28T10:42:04;6.57;;;4.63;;
77055;SDS011;67471;44.918;8.614;2024-02-28T10:45:09;6.35;;;4.43;;
77055;SDS011;67471;44.918;8.614;2024-02-28T10:48:16;7.25;;;4.50;;
77055;SDS011;67471;44.918;8.614;2024-02-28T10:51:23;7.95;;;4.47;;
77055;SDS011;67471;44.918;8.614;2024-02-28T10:54:30;7.75;;;4.38;;
77055;SDS011;67471;44.918;8.614;2024-02-28T10:57:36;8.38;;;5.72;;
77055;SDS011;67471;44.918;8.614;2024-02-28T11:00:42;7.88;;;6.40;;
77055;SDS011;67471;44.918;8.614;2024-02-28T11:03:50;10.88;;;6.40;;
77055;SDS011;67471;44.918;8.614;2024-02-28T11:06:55;6.57;;;5.45;;
77055;SDS011;67471;44.918;8.614;2024-02-28T11:10:04;7.47;;;5.28;;
77055;SDS011;67471;44.918;8.614;2024-02-28T11:16:14;9.70;;;7.35;;
77055;SDS011;67471;44.918;8.614;2024-02-28T11:19:21;7.70;;;5.38;;
77055;SDS011;67471;44.918;8.614;2024-02-28T11:22:28;10.30;;;5.80;;
77055;SDS011;67471;44.918;8.614;2024-02-28T11:25:32;6.57;;;5.38;;
77055;SDS011;67471;44.918;8.614;2024-02-28T11:28:36;8.40;;;5.10;;
77055;SDS011;67471;44.918;8.614;2024-02-28T11:31:40;7.28;;;5.32;;
77055;SDS011;67471;44.918;8.614;2024-02-28T11:34:44;7.90;;;5.18;;
77055;SDS011;67471;44.918;8.614;2024-02-28T11:37:49;8.50;;;5.75;;
77055;SDS011;67471;44.918;8.614;2024-02-28T11:40:54;7.30;;;4.90;;
77055;SDS011;67471;44.918;8.614;2024-02-28T11:44:01;7.03;;;5.30;;
77055;SDS011;67471;44.918;8.614;2024-02-28T11:47:04;7.35;;;5.40;;
77055;SDS011;67471;44.918;8.614;2024-02-28T11:50:08;7.28;;;5.15;;
77055;SDS011;67471;44.918;8.614;2024-02-28T11:53:12;6.10;;;4.13;;
77055;SDS011;67471;44.918;8.614;2024-02-28T11:56:16;6.57;;;4.90;;
77055;SDS011;67471;44.918;8.614;2024-02-28T11:59:22;6.95;;;5.25;;
77055;SDS011;67471;44.918;8.614;2024-02-28T12:02:26;6.70;;;5.07;;
77055;SDS011;67471;44.918;8.614;2024-02-28T12:05:33;7.13;;;4.97;;
77055;SDS011;67471;44.918;8.614;2024-02-28T12:08:37;5.30;;;4.28;;
77055;SDS011;67471;44.918;8.614;2024-02-28T12:11:41;5.97;;;4.35;;
77055;SDS011;67471;44.918;8.614;2024-02-28T12:14:45;8.55;;;3.85;;
77055;SDS011;67471;44.918;8.614;2024-02-28T12:17:49;5.15;;;4.00;;
77055;SDS011;67471;44.918;8.614;2024-02-28T12:20:53;4.78;;;3.70;;
77055;SDS011;67471;44.918;8.614;2024-02-28T12:23:57;5.57;;;4.28;;
77055;SDS011;67471;44.918;8.614;2024-02-28T12:27:01;5.43;;;4.10;;
77055;SDS011;67471;44.918;8.614;2024-02-28T12:30:05;6.65;;;4.35;;
77055;SDS011;67471;44.918;8.614;2024-02-28T12:33:10;6.15;;;4.75;;
77055;SDS011;67471;44.918;8.614;2024-02-28T12:36:17;7.22;;;5.10;;
77055;SDS011;67471;44.918;8.614;2024-02-28T12:39:21;5.60;;;4.53;;
77055;SDS011;67471;44.918;8.614;2024-02-28T12:42:25;6.20;;;3.63;;
77055;SDS011;67471;44.918;8.614;2024-02-28T12:45:29;8.05;;;4.90;;
77055;SDS011;67471;44.918;8.614;2024-02-28T12:48:36;7.43;;;5.68;;
77055;SDS011;67471;44.918;8.614;2024-02-28T12:51:42;7.35;;;5.00;;
77055;SDS011;67471;44.918;8.614;2024-02-28T12:54:47;10.02;;;6.70;;
77055;SDS011;67471;44.918;8.614;2024-02-28T12:57:51;10.30;;;6.60;;
77055;SDS011;67471;44.918;8.614;2024-02-28T13:00:55;8.65;;;5.57;;
77055;SDS011;67471;44.918;8.614;2024-02-28T13:03:59;7.28;;;4.80;;
77055;SDS011;67471;44.918;8.614;2024-02-28T13:07:03;6.70;;;5.20;;
77055;SDS011;67471;44.918;8.614;2024-02-28T13:10:07;6.13;;;4.70;;
77055;SDS011;67471;44.918;8.614;2024-02-28T13:13:12;8.65;;;6.65;;
77055;SDS011;67471;44.918;8.614;2024-02-28T13:16:16;10.25;;;7.55;;
77055;SDS011;67471;44.918;8.614;2024-02-28T13:19:20;7.22;;;5.43;;
77055;SDS011;67471;44.918;8.614;2024-02-28T13:22:24;7.75;;;4.63;;
77055;SDS011;67471;44.918;8.614;2024-02-28T13:25:28;5.93;;;4.30;;
77055;SDS011;67471;44.918;8.614;2024-02-28T13:28:32;7.55;;;3.83;;
77055;SDS011;67471;44.918;8.614;2024-02-28T13:31:37;4.30;;;3.22;;
77055;SDS011;67471;44.918;8.614;2024-02-28T13:34:40;5.88;;;4.18;;
77055;SDS011;67471;44.918;8.614;2024-02-28T13:37:44;7.40;;;4.45;;
77055;SDS011;67471;44.918;8.614;2024-02-28T13:40:49;6.00;;;3.47;;
77055;SDS011;67471;44.918;8.614;2024-02-28T13:43:55;4.38;;;3.00;;
77055;SDS011;67471;44.918;8.614;2024-02-28T13:46:59;5.55;;;3.17;;
77055;SDS011;67471;44.918;8.614;2024-02-28T13:50:03;4.57;;;2.83;;
77055;SDS011;67471;44.918;8.614;2024-02-28T13:53:07;5.88;;;2.90;;
77055;SDS011;67471;44.918;8.614;2024-02-28T13:56:11;6.40;;;3.10;;
77055;SDS011;67471;44.918;8.614;2024-02-28T13:59:15;3.88;;;2.42;;
77055;SDS011;67471;44.918;8.614;2024-02-28T14:02:19;4.65;;;3.15;;
77055;SDS011;67471;44.918;8.614;2024-02-28T14:05:29;4.22;;;2.60;;
77055;SDS011;67471;44.918;8.614;2024-02-28T14:08:32;6.70;;;4.55;;
77055;SDS011;67471;44.918;8.614;2024-02-28T14:11:36;5.13;;;3.53;;
77055;SDS011;67471;44.918;8.614;2024-02-28T14:14:40;5.10;;;2.88;;
77055;SDS011;67471;44.918;8.614;2024-02-28T14:17:44;3.75;;;2.40;;
77055;SDS011;67471;44.918;8.614;2024-02-28T14:20:48;4.13;;;2.63;;
77055;SDS011;67471;44.918;8.614;2024-02-28T14:23:51;3.22;;;1.90;;
77055;SDS011;67471;44.918;8.614;2024-02-28T14:26:55;6.03;;;2.20;;
77055;SDS011;67471;44.918;8.614;2024-02-28T14:29:59;7.63;;;2.60;;
77055;SDS011;67471;44.918;8.614;2024-02-28T14:33:03;7.93;;;3.70;;
77055;SDS011;67471;44.918;8.614;2024-02-28T14:36:07;9.05;;;2.50;;
77055;SDS011;67471;44.918;8.614;2024-02-28T14:39:11;7.78;;;2.42;;
77055;SDS011;67471;44.918;8.614;2024-02-28T14:42:18;3.72;;;2.15;;
77055;SDS011;67471;44.918;8.614;2024-02-28T14:45:22;4.20;;;2.35;;
77055;SDS011;67471;44.918;8.614;2024-02-28T14:48:27;4.72;;;2.50;;
77055;SDS011;67471;44.918;8.614;2024-02-28T14:51:31;16.17;;;4.15;;
77055;SDS011;67471;44.918;8.614;2024-02-28T14:54:35;10.27;;;3.20;;
77055;SDS011;67471;44.918;8.614;2024-02-28T14:57:39;4.80;;;2.50;;
77055;SDS011;67471;44.918;8.614;2024-02-28T15:00:46;5.28;;;2.38;;
77055;SDS011;67471;44.918;8.614;2024-02-28T15:03:51;4.15;;;2.45;;
77055;SDS011;67471;44.918;8.614;2024-02-28T15:06:55;3.35;;;2.30;;
77055;SDS011;67471;44.918;8.614;2024-02-28T15:09:59;4.82;;;3.13;;
77055;SDS011;67471;44.918;8.614;2024-02-28T15:13:07;5.95;;;3.05;;
77055;SDS011;67471;44.918;8.614;2024-02-28T15:16:10;4.50;;;3.47;;
77055;SDS011;67471;44.918;8.614;2024-02-28T15:19:14;6.10;;;4.38;;
77055;SDS011;67471;44.918;8.614;2024-02-28T15:22:18;10.13;;;5.30;;
77055;SDS011;67471;44.918;8.614;2024-02-28T15:25:22;9.10;;;4.70;;
77055;SDS011;67471;44.918;8.614;2024-02-28T15:28:26;9.55;;;5.65;;
77055;SDS011;67471;44.918;8.614;2024-02-28T15:31:30;8.05;;;5.78;;
77055;SDS011;67471;44.918;8.614;2024-02-28T15:34:34;8.80;;;5.75;;
77055;SDS011;67471;44.918;8.614;2024-02-28T15:37:38;8.25;;;5.35;;
77055;SDS011;67471;44.918;8.614;2024-02-28T15:40:41;5.63;;;3.92;;
77055;SDS011;67471;44.918;8.614;2024-02-28T15:43:45;4.85;;;3.60;;
77055;SDS011;67471;44.918;8.614;2024-02-28T15:46:49;6.57;;;4.35;;
77055;SDS011;67471;44.918;8.614;2024-02-28T15:49:53;5.82;;;4.25;;
77055;SDS011;67471;44.918;8.614;2024-02-28T15:52:58;8.70;;;5.72;;
77055;SDS011;67471;44.918;8.614;2024-02-28T15:56:02;6.22;;;3.95;;
77055;SDS011;67471;44.918;8.614;2024-02-28T15:59:08;8.05;;;4.60;;
77055;SDS011;67471;44.918;8.614;2024-02-28T16:02:14;7.38;;;4.90;;
77055;SDS011;67471;44.918;8.614;2024-02-28T16:05:19;7.72;;;5.10;;
77055;SDS011;67471;44.918;8.614;2024-02-28T16:08:27;7.53;;;5.22;;
77055;SDS011;67471;44.918;8.614;2024-02-28T16:11:31;6.43;;;4.60;;
77055;SDS011;67471;44.918;8.614;2024-02-28T16:14:36;10.73;;;6.03;;
77055;SDS011;67471;44.918;8.614;2024-02-28T16:17:40;7.38;;;4.38;;
77055;SDS011;67471;44.918;8.614;2024-02-28T16:20:44;5.50;;;3.88;;
77055;SDS011;67471;44.918;8.614;2024-02-28T16:23:48;9.13;;;5.78;;
77055;SDS011;67471;44.918;8.614;2024-02-28T16:26:51;10.45;;;5.47;;
77055;SDS011;67471;44.918;8.614;2024-02-28T16:29:55;8.05;;;4.22;;
77055;SDS011;67471;44.918;8.614;2024-02-28T16:32:59;7.15;;;4.63;;
77055;SDS011;67471;44.918;8.614;2024-02-28T16:36:04;6.38;;;4.18;;
77055;SDS011;67471;44.918;8.614;2024-02-28T16:39:09;5.75;;;3.80;;
77055;SDS011;67471;44.918;8.614;2024-02-28T16:42:13;6.97;;;3.50;;
77055;SDS011;67471;44.918;8.614;2024-02-28T16:45:17;6.03;;;3.88;;
77055;SDS011;67471;44.918;8.614;2024-02-28T16:48:21;6.05;;;3.75;;
77055;SDS011;67471;44.918;8.614;2024-02-28T16:51:25;5.35;;;3.63;;
77055;SDS011;67471;44.918;8.614;2024-02-28T16:54:30;5.07;;;3.35;;
77055;SDS011;67471;44.918;8.614;2024-02-28T16:57:34;6.03;;;3.60;;
77055;SDS011;67471;44.918;8.614;2024-02-28T17:00:38;7.32;;;3.65;;
77055;SDS011;67471;44.918;8.614;2024-02-28T17:03:42;6.80;;;4.03;;
77055;SDS011;67471;44.918;8.614;2024-02-28T17:06:46;7.50;;;4.18;;
77055;SDS011;67471;44.918;8.614;2024-02-28T17:09:52;6.43;;;4.05;;
77055;SDS011;67471;44.918;8.614;2024-02-28T17:12:56;8.25;;;5.25;;
77055;SDS011;67471;44.918;8.614;2024-02-28T17:16:00;8.02;;;4.60;;
77055;SDS011;67471;44.918;8.614;2024-02-28T17:19:06;6.55;;;4.57;;
77055;SDS011;67471;44.918;8.614;2024-02-28T17:22:10;5.22;;;4.45;;
77055;SDS011;67471;44.918;8.614;2024-02-28T17:25:14;7.88;;;5.45;;
77055;SDS011;67471;44.918;8.614;2024-02-28T17:28:18;8.57;;;5.03;;
77055;SDS011;67471;44.918;8.614;2024-02-28T17:31:21;5.90;;;4.65;;
77055;SDS011;67471;44.918;8.614;2024-02-28T17:34:25;9.18;;;5.43;;
77055;SDS011;67471;44.918;8.614;2024-02-28T17:37:29;7.32;;;5.15;;
77055;SDS011;67471;44.918;8.614;2024-02-28T17:40:33;9.02;;;5.30;;
77055;SDS011;67471;44.918;8.614;2024-02-28T17:43:37;7.28;;;5.40;;
77055;SDS011;67471;44.918;8.614;2024-02-28T17:46:41;11.43;;;6.25;;
77055;SDS011;67471;44.918;8.614;2024-02-28T17:49:44;6.55;;;4.55;;
77055;SDS011;67471;44.918;8.614;2024-02-28T17:52:48;9.05;;;5.75;;
77055;SDS011;67471;44.918;8.614;2024-02-28T17:55:53;7.32;;;5.53;;
77055;SDS011;67471;44.918;8.614;2024-02-28T17:58:58;9.60;;;6.10;;
77055;SDS011;67471;44.918;8.614;2024-02-28T18:02:04;12.20;;;6.03;;
77055;SDS011;67471;44.918;8.614;2024-02-28T18:05:09;10.00;;;5.75;;
77055;SDS011;67471;44.918;8.614;2024-02-28T18:08:13;12.63;;;6.03;;
77055;SDS011;67471;44.918;8.614;2024-02-28T18:11:26;8.40;;;5.70;;
77055;SDS011;67471;44.918;8.614;2024-02-28T18:14:30;7.25;;;5.47;;
77055;SDS011;67471;44.918;8.614;2024-02-28T18:17:34;9.73;;;6.20;;
77055;SDS011;67471;44.918;8.614;2024-02-28T18:20:39;11.55;;;6.95;;